createdAt,value
2022-11-03T00:00:12.346Z,9.20
2022-11-03T00:02:39.321Z,9.20
2022-11-03T00:05:25.839Z,9.20
2022-11-03T00:07:52.398Z,9.30
2022-11-03T00:10:18.866Z,9.30
2022-11-03T00:12:45.377Z,9.30
2022-11-03T00:15:11.880Z,9.30
2022-11-03T00:17:38.368Z,9.30
2022-11-03T00:20:04.835Z,9.30
2022-11-03T00:22:33.104Z,9.30
2022-11-03T00:24:59.874Z,9.30
2022-11-03T00:27:26.439Z,9.30
2022-11-03T00:29:52.983Z,9.20
2022-11-03T00:32:19.486Z,9.20
2022-11-03T00:34:45.971Z,9.20
2022-11-03T00:37:12.461Z,9.20
2022-11-03T00:39:38.965Z,9.20
2022-11-03T00:42:05.441Z,9.20
2022-11-03T00:44:31.924Z,9.20
2022-11-03T00:46:58.417Z,9.20
2022-11-03T00:49:24.946Z,9.20
2022-11-03T00:51:51.473Z,9.20
2022-11-03T00:54:17.941Z,9.20
2022-11-03T00:56:44.754Z,9.20
2022-11-03T00:59:11.222Z,9.20
2022-11-03T01:01:42.362Z,9.20
2022-11-03T01:04:30.616Z,9.20
2022-11-03T01:06:57.176Z,9.20
2022-11-03T01:09:23.650Z,9.20
2022-11-03T01:11:50.138Z,9.20
2022-11-03T01:14:16.643Z,9.20
2022-11-03T01:16:43.143Z,9.20
2022-11-03T01:19:09.622Z,9.10
2022-11-03T01:21:36.173Z,9.20
2022-11-03T01:24:02.782Z,9.20
2022-11-03T01:26:29.337Z,9.20
2022-11-03T01:28:55.795Z,9.10
2022-11-03T01:31:22.292Z,9.10
2022-11-03T01:33:48.753Z,9.10
2022-11-03T01:36:15.243Z,9.10
2022-11-03T01:38:41.774Z,9.10
2022-11-03T01:41:08.341Z,9.10
2022-11-03T01:43:34.884Z,9.10
2022-11-03T01:46:01.376Z,9.10
2022-11-03T01:48:27.881Z,9.10
2022-11-03T01:50:54.384Z,9.10
2022-11-03T01:53:20.934Z,9.00
2022-11-03T01:55:47.473Z,9.00
2022-11-03T01:58:13.957Z,9.00
2022-11-03T02:00:40.505Z,9.10
2022-11-03T02:03:07.210Z,9.10
2022-11-03T02:05:33.970Z,9.10
2022-11-03T02:08:00.552Z,9.10
2022-11-03T02:10:27.114Z,9.20
2022-11-03T02:12:53.629Z,9.10
2022-11-03T02:15:21.558Z,9.20
2022-11-03T02:17:48.054Z,9.20
2022-11-03T02:20:14.679Z,9.20
2022-11-03T02:22:41.168Z,9.20
2022-11-03T02:25:07.702Z,9.20
2022-11-03T02:27:34.242Z,9.20
2022-11-03T02:30:00.720Z,9.20
2022-11-03T02:32:27.244Z,9.20
2022-11-03T02:34:53.736Z,9.20
2022-11-03T02:37:20.310Z,9.30
2022-11-03T02:39:46.907Z,9.20
2022-11-03T02:42:13.479Z,9.20
2022-11-03T02:44:39.994Z,9.20
2022-11-03T02:47:06.520Z,9.20
2022-11-03T02:49:33.025Z,9.20
2022-11-03T02:51:59.576Z,9.20
2022-11-03T02:54:26.112Z,9.20
2022-11-03T02:56:52.639Z,9.20
2022-11-03T02:59:19.123Z,9.20
2022-11-03T03:01:48.928Z,9.10
2022-11-03T03:04:15.746Z,9.20
2022-11-03T03:06:42.267Z,9.20
2022-11-03T03:09:08.755Z,9.20
2022-11-03T03:11:39.011Z,9.20
2022-11-03T03:14:06.056Z,9.20
2022-11-03T03:16:32.593Z,9.10
2022-11-03T03:18:59.107Z,9.10
2022-11-03T03:21:25.593Z,9.10
2022-11-03T03:23:52.098Z,9.10
2022-11-03T03:26:18.591Z,9.10
2022-11-03T03:28:45.157Z,9.10
2022-11-03T03:31:11.691Z,9.10
2022-11-03T03:33:39.796Z,9.20
2022-11-03T03:36:08.610Z,9.10
2022-11-03T03:38:35.124Z,9.10
2022-11-03T03:41:04.491Z,9.10
2022-11-03T03:43:34.609Z,9.10
2022-11-03T03:46:01.087Z,9.10
2022-11-03T03:48:27.587Z,9.10
2022-11-03T03:50:54.068Z,9.10
2022-11-03T03:53:20.661Z,9.10
2022-11-03T03:55:47.151Z,9.10
2022-11-03T03:58:13.749Z,9.10
2022-11-03T04:00:40.315Z,9.10
2022-11-03T04:03:06.842Z,9.10
2022-11-03T04:05:33.341Z,9.20
2022-11-03T04:07:59.827Z,9.20
2022-11-03T04:10:26.336Z,9.20
2022-11-03T04:13:11.836Z,9.20
2022-11-03T04:15:57.217Z,9.20
2022-11-03T04:18:42.647Z,9.20
2022-11-03T04:21:27.634Z,9.20
2022-11-03T04:23:54.187Z,9.20
2022-11-03T04:26:23.822Z,9.10
2022-11-03T04:28:50.520Z,9.20
2022-11-03T04:31:17.067Z,9.10
2022-11-03T04:33:43.592Z,9.10
2022-11-03T04:36:10.075Z,9.10
2022-11-03T04:38:36.624Z,9.10
2022-11-03T04:41:03.435Z,9.10
2022-11-03T04:43:30.065Z,9.10
2022-11-03T04:45:56.567Z,9.10
2022-11-03T04:48:23.150Z,9.10
2022-11-03T04:50:49.660Z,9.20
2022-11-03T04:53:16.142Z,9.20
2022-11-03T04:55:42.669Z,9.20
2022-11-03T04:58:09.184Z,9.20
2022-11-03T05:00:35.684Z,9.10
2022-11-03T05:03:02.232Z,9.10
2022-11-03T05:05:28.814Z,9.10
2022-11-03T05:07:55.339Z,9.10
2022-11-03T05:10:21.848Z,9.00
2022-11-03T05:12:48.418Z,9.00
2022-11-03T05:15:14.930Z,9.00
2022-11-03T05:17:41.418Z,9.00
2022-11-03T05:20:08.027Z,9.00
2022-11-03T05:22:34.530Z,9.00
2022-11-03T05:25:01.042Z,9.00
2022-11-03T05:27:27.599Z,9.00
2022-11-03T05:29:56.459Z,9.00
2022-11-03T05:32:26.038Z,9.00
2022-11-03T05:34:52.543Z,9.00
2022-11-03T05:37:24.956Z,9.00
2022-11-03T05:39:52.828Z,9.00
2022-11-03T05:42:19.336Z,9.00
2022-11-03T05:44:45.813Z,9.10
2022-11-03T05:47:12.383Z,9.10
2022-11-03T05:49:38.885Z,9.10
2022-11-03T05:52:05.417Z,9.10
2022-11-03T05:54:31.917Z,9.10
2022-11-03T05:56:58.727Z,9.10
2022-11-03T05:59:25.211Z,9.10
2022-11-03T06:01:51.821Z,9.10
2022-11-03T06:04:18.516Z,9.10
2022-11-03T06:06:44.985Z,9.10
2022-11-03T06:09:12.126Z,9.10
2022-11-03T06:11:38.646Z,9.10
2022-11-03T06:14:05.137Z,9.10
2022-11-03T06:16:31.638Z,9.20
2022-11-03T06:18:58.131Z,9.20
2022-11-03T06:21:24.670Z,9.20
2022-11-03T06:23:51.145Z,9.20
2022-11-03T06:26:17.638Z,9.20
2022-11-03T06:28:44.192Z,9.20
2022-11-03T06:31:10.666Z,9.20
2022-11-03T06:33:37.200Z,9.20
2022-11-03T06:36:03.822Z,9.30
2022-11-03T06:38:30.315Z,9.30
2022-11-03T06:40:56.859Z,9.30
2022-11-03T06:43:24.725Z,9.40
2022-11-03T06:45:51.410Z,9.40
2022-11-03T06:48:17.897Z,9.40
2022-11-03T06:50:45.043Z,9.40
2022-11-03T06:53:11.695Z,9.40
2022-11-03T06:55:41.343Z,9.40
2022-11-03T06:58:08.092Z,9.40
2022-11-03T07:00:36.853Z,9.40
2022-11-03T07:03:05.454Z,9.40
2022-11-03T07:05:32.181Z,9.50
2022-11-03T07:07:58.708Z,9.50
2022-11-03T07:10:25.432Z,9.60
2022-11-03T07:12:51.942Z,9.60
2022-11-03T07:15:18.449Z,9.60
2022-11-03T07:17:45.002Z,9.60
2022-11-03T07:20:11.481Z,9.70
2022-11-03T07:22:37.999Z,9.70
2022-11-03T07:25:04.474Z,9.70
2022-11-03T07:27:30.962Z,9.70
2022-11-03T07:29:57.466Z,9.70
2022-11-03T07:32:24.016Z,9.80
2022-11-03T07:34:50.509Z,9.80
2022-11-03T07:37:17.102Z,9.80
2022-11-03T07:39:43.687Z,9.80
2022-11-03T07:42:10.256Z,9.80
2022-11-03T07:44:36.747Z,9.80
2022-11-03T07:47:03.257Z,9.90
2022-11-03T07:49:29.855Z,9.90
2022-11-03T07:51:56.447Z,9.90
2022-11-03T07:54:23.488Z,9.90
2022-11-03T07:56:50.287Z,9.90
2022-11-03T07:59:19.937Z,9.90
2022-11-03T08:01:46.674Z,9.90
2022-11-03T08:04:13.188Z,9.90
2022-11-03T08:06:39.710Z,10.00
2022-11-03T08:09:06.982Z,10.00
2022-11-03T08:11:33.492Z,10.00
2022-11-03T08:14:00.009Z,10.10
2022-11-03T08:16:26.592Z,10.10
2022-11-03T08:18:53.177Z,10.10
2022-11-03T08:21:19.690Z,10.20
2022-11-03T08:23:47.808Z,10.20
2022-11-03T08:26:14.497Z,10.20
2022-11-03T08:28:41.001Z,10.30
2022-11-03T08:31:12.285Z,10.40
2022-11-03T08:33:39.746Z,10.40
2022-11-03T08:36:06.264Z,10.50
2022-11-03T08:38:32.776Z,10.50
2022-11-03T08:40:59.368Z,10.60
2022-11-03T08:43:25.918Z,10.70
2022-11-03T08:45:53.626Z,10.70
2022-11-03T08:48:20.794Z,10.80
2022-11-03T08:50:48.227Z,10.80
2022-11-03T08:53:14.796Z,10.90
2022-11-03T08:55:41.358Z,10.90
2022-11-03T08:58:08.463Z,11.00
2022-11-03T09:00:40.728Z,11.00
2022-11-03T09:03:07.717Z,11.10
2022-11-03T09:05:34.241Z,11.10
2022-11-03T09:10:47.361Z,11.20
2022-11-03T09:13:13.863Z,11.20
2022-11-03T09:15:40.371Z,11.20
2022-11-03T09:18:07.187Z,11.30
2022-11-03T09:20:33.910Z,11.30
2022-11-03T09:23:00.411Z,11.40
2022-11-03T09:25:26.931Z,11.40
2022-11-03T09:27:53.416Z,11.50
2022-11-03T09:30:21.033Z,11.50
2022-11-03T09:32:48.175Z,11.50
2022-11-03T09:35:14.764Z,11.60
2022-11-03T09:37:41.275Z,11.50
2022-11-03T09:40:07.937Z,11.50
2022-11-03T09:42:34.624Z,11.60
2022-11-03T09:45:01.201Z,11.50
2022-11-03T09:47:27.704Z,11.60
2022-11-03T09:49:54.245Z,11.60
2022-11-03T09:52:20.728Z,11.60
2022-11-03T09:54:47.244Z,11.70
2022-11-03T09:57:13.817Z,11.70
2022-11-03T09:59:40.322Z,11.70
2022-11-03T10:02:06.877Z,11.80
2022-11-03T10:04:33.473Z,11.90
2022-11-03T10:07:00.053Z,11.90
2022-11-03T10:09:26.611Z,12.00
2022-11-03T10:11:53.093Z,12.00
2022-11-03T10:14:19.565Z,12.00
2022-11-03T10:16:50.755Z,12.00
2022-11-03T10:19:19.696Z,12.00
2022-11-03T10:21:46.180Z,12.00
2022-11-03T10:24:12.816Z,12.00
2022-11-03T10:26:39.307Z,12.00
2022-11-03T10:29:05.975Z,12.10
2022-11-03T10:31:32.556Z,12.20
2022-11-03T10:33:59.069Z,12.30
2022-11-03T10:36:25.778Z,12.30
2022-11-03T10:38:52.299Z,12.40
2022-11-03T10:41:18.807Z,12.40
2022-11-03T10:43:45.318Z,12.40
2022-11-03T10:46:36.509Z,12.50
2022-11-03T10:48:59.284Z,12.50
2022-11-03T10:51:25.808Z,12.60
2022-11-03T10:53:52.348Z,12.70
2022-11-03T10:56:18.955Z,12.70
2022-11-03T10:58:45.544Z,12.70
2022-11-03T11:01:12.320Z,12.70
2022-11-03T11:03:38.902Z,12.80
2022-11-03T11:06:05.491Z,12.80
2022-11-03T11:08:32.047Z,12.80
2022-11-03T11:10:58.639Z,12.90
2022-11-03T11:13:25.637Z,12.90
2022-11-03T11:15:52.137Z,12.90
2022-11-03T11:18:18.646Z,13.00
2022-11-03T11:20:45.270Z,13.00
2022-11-03T11:23:11.774Z,13.00
2022-11-03T11:25:38.262Z,13.00
2022-11-03T11:28:04.764Z,13.00
2022-11-03T11:30:31.325Z,13.00
2022-11-03T11:32:57.819Z,13.00
2022-11-03T11:35:25.046Z,13.00
2022-11-03T11:37:51.559Z,13.00
2022-11-03T11:40:18.074Z,13.00
2022-11-03T11:42:44.579Z,13.00
2022-11-03T11:45:11.073Z,13.00
2022-11-03T11:47:37.602Z,13.00
2022-11-03T11:50:04.083Z,13.10
2022-11-03T11:52:30.662Z,13.10
2022-11-03T11:54:57.298Z,13.10
2022-11-03T11:57:23.780Z,13.10
2022-11-03T11:59:51.029Z,13.10
2022-11-03T12:02:17.548Z,13.10
2022-11-03T12:04:44.108Z,13.10
2022-11-03T12:07:10.780Z,13.10
2022-11-03T12:09:37.347Z,13.20
2022-11-03T12:12:08.622Z,13.30
2022-11-03T12:14:35.553Z,13.50
2022-11-03T12:17:02.022Z,13.90
2022-11-03T12:19:28.536Z,14.10
2022-11-03T12:21:55.666Z,14.20
2022-11-03T12:24:22.185Z,14.40
2022-11-03T12:26:48.789Z,14.60
2022-11-03T12:29:15.258Z,14.80
2022-11-03T12:31:41.824Z,14.90
2022-11-03T12:34:08.303Z,15.00
2022-11-03T12:36:34.822Z,14.90
2022-11-03T12:39:01.311Z,14.90
2022-11-03T12:41:27.792Z,14.80
2022-11-03T12:43:56.010Z,14.80
2022-11-03T12:46:22.614Z,14.90
2022-11-03T12:48:49.123Z,14.80
2022-11-03T12:51:15.630Z,14.60
2022-11-03T12:53:42.157Z,14.50
2022-11-03T12:56:09.126Z,14.30
2022-11-03T12:58:35.647Z,14.30
2022-11-03T13:01:02.385Z,14.30
2022-11-03T13:03:29.064Z,14.30
2022-11-03T13:05:55.840Z,14.30
2022-11-03T13:08:22.696Z,14.20
2022-11-03T13:10:49.182Z,14.00
2022-11-03T13:13:15.694Z,13.90
2022-11-03T13:15:42.435Z,13.80
2022-11-03T13:18:14.083Z,13.60
2022-11-03T13:20:41.125Z,13.60
2022-11-03T13:23:08.034Z,13.60
2022-11-03T13:25:35.102Z,13.60
2022-11-03T13:28:03.901Z,13.70
2022-11-03T13:30:30.613Z,13.70
2022-11-03T13:32:57.183Z,13.70
2022-11-03T13:35:23.810Z,13.70
2022-11-03T13:37:50.361Z,13.70
2022-11-03T13:40:50.481Z,13.60
2022-11-03T13:43:03.518Z,13.60
2022-11-03T13:45:30.069Z,13.50
2022-11-03T13:48:45.521Z,13.40
2022-11-03T13:50:43.835Z,13.30
2022-11-03T13:56:00.661Z,13.20
2022-11-03T14:01:18.891Z,13.00
2022-11-03T14:06:33.410Z,12.80
2022-11-03T14:08:59.928Z,12.80
2022-11-03T14:11:44.981Z,12.70
2022-11-03T14:14:11.644Z,12.70
2022-11-03T14:16:38.239Z,12.70
2022-11-03T14:19:05.966Z,12.70
2022-11-03T14:21:32.734Z,12.60
2022-11-03T14:23:59.292Z,12.60
2022-11-03T14:26:41.793Z,12.50
2022-11-03T14:29:09.479Z,12.50
2022-11-03T14:31:35.998Z,12.40
2022-11-03T14:34:02.694Z,12.40
2022-11-03T14:36:29.224Z,12.30
2022-11-03T14:38:55.771Z,12.30
2022-11-03T14:41:41.146Z,12.30
2022-11-03T14:44:07.701Z,12.30
2022-11-03T14:46:34.227Z,12.30
2022-11-03T14:49:03.809Z,12.30
2022-11-03T14:51:30.305Z,12.20
2022-11-03T14:53:57.616Z,12.20
2022-11-03T14:56:24.095Z,12.20
2022-11-03T14:58:50.692Z,12.20
2022-11-03T15:01:17.230Z,12.20
2022-11-03T15:03:43.917Z,12.20
2022-11-03T15:06:10.583Z,12.10
2022-11-03T15:08:37.241Z,12.10
2022-11-03T15:11:05.171Z,12.10
2022-11-03T15:13:31.666Z,12.10
2022-11-03T15:15:58.157Z,12.10
2022-11-03T15:18:25.082Z,12.10
2022-11-03T15:20:51.599Z,12.00
2022-11-03T15:26:04.616Z,12.00
2022-11-03T15:28:31.679Z,12.00
2022-11-03T15:30:58.154Z,12.00
2022-11-03T15:33:24.688Z,12.00
2022-11-03T15:35:51.326Z,12.00
2022-11-03T15:38:17.864Z,12.00
2022-11-03T15:40:44.359Z,12.00
2022-11-03T15:43:10.855Z,12.00
2022-11-03T15:45:37.401Z,12.00
2022-11-03T15:48:03.920Z,12.00
2022-11-03T15:50:30.398Z,12.00
2022-11-03T15:52:56.939Z,11.90
2022-11-03T15:55:23.484Z,11.90
2022-11-03T15:57:50.059Z,11.90
2022-11-03T16:00:16.536Z,11.80
2022-11-03T16:02:43.174Z,11.80
2022-11-03T16:05:09.740Z,11.80
2022-11-03T16:07:36.247Z,11.80
2022-11-03T16:10:02.935Z,11.80
2022-11-03T16:12:30.042Z,11.80
2022-11-03T16:14:56.626Z,11.90
2022-11-03T16:17:23.214Z,11.90
2022-11-03T16:19:49.735Z,11.90
2022-11-03T16:22:16.259Z,11.80
2022-11-03T16:24:44.209Z,11.80
2022-11-03T16:27:10.691Z,11.80
2022-11-03T16:29:37.165Z,11.80
2022-11-03T16:32:03.679Z,11.80
2022-11-03T16:34:30.199Z,11.80
2022-11-03T16:36:56.768Z,11.70
2022-11-03T16:39:23.772Z,11.70
2022-11-03T16:41:54.572Z,11.70
2022-11-03T16:44:21.490Z,11.60
2022-11-03T16:46:48.052Z,11.50
2022-11-03T16:49:14.562Z,11.50
2022-11-03T16:51:41.047Z,11.50
2022-11-03T16:54:07.631Z,11.30
2022-11-03T16:56:34.163Z,11.20
2022-11-03T16:59:00.682Z,11.10
2022-11-03T17:01:27.555Z,11.00
2022-11-03T17:03:54.192Z,11.00
2022-11-03T17:06:20.705Z,10.90
2022-11-03T17:08:52.661Z,10.80
2022-11-03T17:11:35.587Z,10.70
2022-11-03T17:14:02.417Z,10.70
2022-11-03T17:16:28.909Z,10.60
2022-11-03T17:18:55.442Z,10.50
2022-11-03T17:21:22.147Z,10.50
2022-11-03T17:23:48.620Z,10.40
2022-11-03T17:26:15.371Z,10.40
2022-11-03T17:28:41.863Z,10.40
2022-11-03T17:31:09.100Z,10.30
2022-11-03T17:33:35.613Z,10.30
2022-11-03T17:36:02.149Z,10.30
2022-11-03T17:38:28.730Z,10.20
2022-11-03T17:40:55.252Z,10.20
2022-11-03T17:43:22.337Z,10.20
2022-11-03T17:45:48.823Z,10.20
2022-11-03T17:48:15.371Z,10.10
2022-11-03T17:50:41.854Z,10.10
2022-11-03T17:53:08.716Z,10.10
2022-11-03T17:55:35.703Z,10.10
2022-11-03T17:58:02.237Z,10.10
2022-11-03T18:00:28.726Z,10.10
2022-11-03T18:02:55.238Z,10.10
2022-11-03T18:05:21.964Z,10.10
2022-11-03T18:07:48.755Z,10.10
2022-11-03T18:10:15.243Z,10.00
2022-11-03T18:13:00.897Z,10.10
2022-11-03T18:15:27.710Z,10.00
2022-11-03T18:17:54.254Z,10.00
2022-11-03T18:20:20.787Z,10.00
2022-11-03T18:22:47.285Z,10.00
2022-11-03T18:25:14.347Z,10.00
2022-11-03T18:27:40.843Z,10.00
2022-11-03T18:30:07.343Z,10.00
2022-11-03T18:32:35.872Z,10.00
2022-11-03T18:35:02.593Z,10.00
2022-11-03T18:37:29.138Z,10.00
2022-11-03T18:39:55.613Z,10.00
2022-11-03T18:42:22.172Z,10.00
2022-11-03T18:44:49.118Z,10.00
2022-11-03T18:47:15.610Z,10.00
2022-11-03T18:49:43.272Z,10.00
2022-11-03T18:52:09.773Z,10.00
2022-11-03T18:54:39.471Z,10.10
2022-11-03T18:57:06.283Z,10.10
2022-11-03T18:59:37.264Z,10.10
2022-11-03T19:02:03.936Z,10.10
2022-11-03T19:04:32.032Z,10.10
2022-11-03T19:06:58.699Z,10.10
2022-11-03T19:09:28.219Z,10.10
2022-11-03T19:11:54.702Z,10.10
2022-11-03T19:14:21.203Z,10.10
2022-11-03T19:17:21.259Z,10.10
2022-11-03T19:22:09.443Z,10.00
2022-11-03T19:24:36.167Z,10.10
2022-11-03T19:27:02.773Z,10.10
2022-11-03T19:29:29.851Z,10.10
2022-11-03T19:31:56.979Z,10.10
2022-11-03T19:34:23.466Z,10.10
2022-11-03T19:36:50.082Z,10.10
2022-11-03T19:39:17.990Z,10.10
2022-11-03T19:42:03.373Z,10.10
2022-11-03T19:44:30.011Z,10.10
2022-11-03T19:47:00.117Z,10.00
2022-11-03T19:49:29.008Z,10.00
2022-11-03T19:51:56.318Z,10.00
2022-11-03T19:54:22.927Z,10.00
2022-11-03T19:56:49.515Z,9.90
2022-11-03T19:59:16.017Z,10.00
2022-11-03T20:01:42.593Z,10.00
2022-11-03T20:04:09.154Z,9.90
2022-11-03T20:06:35.650Z,10.00
2022-11-03T20:09:04.345Z,10.00
2022-11-03T20:11:30.835Z,10.00
2022-11-03T20:13:57.349Z,10.00
2022-11-03T20:16:23.864Z,10.00
2022-11-03T20:18:50.947Z,10.00
2022-11-03T20:21:17.565Z,10.00
2022-11-03T20:23:44.079Z,10.00
2022-11-03T20:26:10.565Z,10.00
2022-11-03T20:28:37.080Z,9.90
2022-11-03T20:31:06.498Z,9.90
2022-11-03T20:33:33.108Z,9.90
2022-11-03T20:35:59.665Z,9.90
2022-11-03T20:38:28.566Z,9.90
2022-11-03T20:40:58.700Z,9.90
2022-11-03T20:43:27.006Z,9.90
2022-11-03T20:45:57.719Z,10.00
2022-11-03T20:48:27.330Z,9.90
2022-11-03T20:50:53.802Z,10.00
2022-11-03T20:53:20.287Z,10.00
2022-11-03T20:55:46.770Z,10.00
2022-11-03T20:58:16.291Z,10.00
2022-11-03T21:00:47.762Z,10.10
2022-11-03T21:03:31.373Z,10.10
2022-11-03T21:06:00.868Z,10.10
2022-11-03T21:08:27.434Z,10.20
2022-11-03T21:10:54.023Z,10.20
2022-11-03T21:13:20.574Z,10.20
2022-11-03T21:16:23.622Z,10.20
2022-11-03T21:19:10.160Z,10.20
2022-11-03T21:21:36.733Z,10.20
2022-11-03T21:24:03.293Z,10.20
2022-11-03T21:26:31.065Z,10.20
2022-11-03T21:28:57.726Z,10.20
2022-11-03T21:31:24.236Z,10.20
2022-11-03T21:33:50.751Z,10.20
2022-11-03T21:36:17.226Z,10.20
2022-11-03T21:38:43.695Z,10.20
2022-11-03T21:41:29.068Z,10.20
2022-11-03T21:44:14.399Z,10.20
2022-11-03T21:46:41.696Z,10.20
2022-11-03T21:49:27.060Z,10.20
2022-11-03T21:51:53.623Z,10.20
2022-11-03T21:54:20.101Z,10.20
2022-11-03T21:56:46.586Z,10.30
2022-11-03T21:59:13.132Z,10.30
2022-11-03T22:01:39.772Z,10.30
2022-11-03T22:04:06.545Z,10.30
2022-11-03T22:06:33.075Z,10.30
2022-11-03T22:08:59.598Z,10.40
2022-11-03T22:11:26.185Z,10.40
2022-11-03T22:13:53.992Z,10.40
2022-11-03T22:16:42.361Z,10.30
2022-11-03T22:19:27.676Z,10.40
2022-11-03T22:22:13.163Z,10.40
2022-11-03T22:24:58.495Z,10.40
2022-11-03T22:27:25.037Z,10.40
2022-11-03T22:30:10.411Z,10.40
2022-11-03T22:32:36.959Z,10.40
2022-11-03T22:35:22.322Z,10.40
2022-11-03T22:37:48.903Z,10.40
2022-11-03T22:40:34.314Z,10.40
2022-11-03T22:43:19.583Z,10.40
2022-11-03T22:45:52.344Z,10.40
2022-11-03T22:48:18.931Z,10.40
2022-11-03T22:50:45.644Z,10.40
2022-11-03T22:53:31.081Z,10.40
2022-11-03T22:55:57.592Z,10.40
2022-11-03T22:58:29.418Z,10.40
2022-11-03T23:00:57.097Z,10.30
2022-11-03T23:03:23.702Z,10.30
2022-11-03T23:05:50.214Z,10.30
2022-11-03T23:08:16.802Z,10.30
2022-11-03T23:10:43.443Z,10.30
2022-11-03T23:13:10.269Z,10.30
2022-11-03T23:15:43.391Z,10.30
2022-11-03T23:18:28.797Z,10.30
2022-11-03T23:21:07.442Z,10.30
2022-11-03T23:23:52.847Z,10.30
2022-11-03T23:26:19.343Z,10.30
2022-11-03T23:28:45.982Z,10.30
2022-11-03T23:31:12.503Z,10.30
2022-11-03T23:33:39.175Z,10.30
2022-11-03T23:36:05.681Z,10.20
2022-11-03T23:38:33.031Z,10.20
2022-11-03T23:40:59.529Z,10.20
2022-11-03T23:43:26.042Z,10.20
2022-11-03T23:46:11.302Z,10.20
2022-11-03T23:48:47.066Z,10.30
2022-11-03T23:51:14.654Z,10.30
2022-11-03T23:53:41.161Z,10.30
2022-11-03T23:56:26.609Z,10.30
2022-11-03T23:58:53.114Z,10.30
